Badan Meteorologi, Klimatologi, dan Geofisika

CUACA TERKINI BANDARA KUALANAMU

Rabu, 25 November 2020 07:11 UTC

Cuaca : Berawan

Angin : (dari) Utara, 18.5 km/jam

Jarak Pandang : >=10 km

Suhu : 30 °C

Waktu Pengamatan : 13:30 WIB

Selengkapnya>>>

DATA METEOROLOGI KUALANAMU

Data Metar Terbaru

WIMM 250700Z 33011KT 310V010 9999 SCT017 BKN030 30/25 Q1007 NOSIG=

WIMM 250630Z 34010KT 310V010 9999 SCT017 30/25 Q1008 NOSIG=

WIMM 250600Z 34010KT 310V010 9999 SCT017 30/25 Q1008 NOSIG=

WIMM 250500Z 31007KT 290V010 9999 SCT017 30/25 Q1009 NOSIG=

WIMM 250430Z 31005KT 290V010 9999 SCT017 30/25 Q1010 NOSIG=

TAF WIMM 250500Z 2506/2606 35008KT 9999 SCT018 BECMG 2508/2510 VRB04KT 5000 BR FEW016CB SCT017 BECMG 2514/2516 -TSRA =

Selengkapnya>>>

Data TAF Terbaru

TAF WIMM 250500Z 2506/2606 35008KT 9999 SCT018 BECMG 2508/2510 VRB04KT 5000 BR FEW016CB SCT017 BECMG 2514/2516 -TSRA =

Selengkapnya>>>

CITRA SATELIT

Enhanced
Citra Satelit
Cloud Type
Citra Satelit IR
Hotspot
Citra Satelit
Sebaran Asap
Citra Satelit